sensor_id;sensor_type;location;lat;lon;timestamp;pressure;altitude;pressure_sealevel;temperature;humidity
61900;BME280;47853;55.890;37.664;2024-01-15T00:00:41;97201.22;;;-6.28;100.00
61900;BME280;47853;55.890;37.664;2024-01-15T00:03:07;97198.16;;;-5.87;100.00
61900;BME280;47853;55.890;37.664;2024-01-15T00:05:32;97213.94;;;-6.72;100.00
61900;BME280;47853;55.890;37.664;2024-01-15T00:07:57;97202.41;;;-6.32;100.00
61900;BME280;47853;55.890;37.664;2024-01-15T00:10:23;97204.66;;;-6.27;100.00
61900;BME280;47853;55.890;37.664;2024-01-15T00:12:49;97199.88;;;-6.67;100.00
61900;BME280;47853;55.890;37.664;2024-01-15T00:15:15;97195.44;;;-6.43;100.00
61900;BME280;47853;55.890;37.664;2024-01-15T00:17:41;97201.78;;;-6.47;100.00
61900;BME280;47853;55.890;37.664;2024-01-15T00:20:07;97188.31;;;-6.39;100.00
61900;BME280;47853;55.890;37.664;2024-01-15T00:22:32;97202.19;;;-6.76;100.00
61900;BME280;47853;55.890;37.664;2024-01-15T00:24:58;97193.56;;;-6.52;100.00
61900;BME280;47853;55.890;37.664;2024-01-15T00:27:23;97191.50;;;-6.71;100.00
61900;BME280;47853;55.890;37.664;2024-01-15T00:29:49;97184.53;;;-6.93;100.00
61900;BME280;47853;55.890;37.664;2024-01-15T00:32:15;97175.53;;;-6.29;100.00
61900;BME280;47853;55.890;37.664;2024-01-15T00:34:40;97168.91;;;-6.45;100.00
61900;BME280;47853;55.890;37.664;2024-01-15T00:37:06;97188.44;;;-5.84;100.00
61900;BME280;47853;55.890;37.664;2024-01-15T00:39:31;97191.09;;;-6.53;100.00
61900;BME280;47853;55.890;37.664;2024-01-15T00:41:56;97185.13;;;-6.43;100.00
61900;BME280;47853;55.890;37.664;2024-01-15T00:44:22;97157.31;;;-6.50;100.00
61900;BME280;47853;55.890;37.664;2024-01-15T00:46:47;97169.38;;;-6.62;100.00
61900;BME280;47853;55.890;37.664;2024-01-15T00:49:13;97175.38;;;-6.50;100.00
61900;BME280;47853;55.890;37.664;2024-01-15T00:51:39;97169.06;;;-6.35;100.00
61900;BME280;47853;55.890;37.664;2024-01-15T00:54:05;97175.25;;;-5.80;100.00
61900;BME280;47853;55.890;37.664;2024-01-15T00:56:30;97164.81;;;-6.47;100.00
61900;BME280;47853;55.890;37.664;2024-01-15T00:58:56;97173.75;;;-5.94;100.00
61900;BME280;47853;55.890;37.664;2024-01-15T01:01:21;97167.69;;;-6.16;100.00
61900;BME280;47853;55.890;37.664;2024-01-15T01:03:47;97171.25;;;-6.53;100.00
61900;BME280;47853;55.890;37.664;2024-01-15T01:06:12;97153.19;;;-6.53;100.00
61900;BME280;47853;55.890;37.664;2024-01-15T01:08:38;97146.81;;;-6.83;100.00
61900;BME280;47853;55.890;37.664;2024-01-15T01:11:04;97168.81;;;-6.54;100.00
61900;BME280;47853;55.890;37.664;2024-01-15T01:13:29;97150.28;;;-6.37;100.00
61900;BME280;47853;55.890;37.664;2024-01-15T01:15:55;97142.13;;;-6.55;100.00
61900;BME280;47853;55.890;37.664;2024-01-15T01:18:20;97146.03;;;-6.38;100.00
61900;BME280;47853;55.890;37.664;2024-01-15T01:20:46;97131.88;;;-6.79;100.00
61900;BME280;47853;55.890;37.664;2024-01-15T01:23:11;97117.66;;;-6.85;100.00
61900;BME280;47853;55.890;37.664;2024-01-15T01:25:37;97126.19;;;-6.49;100.00
61900;BME280;47853;55.890;37.664;2024-01-15T01:28:02;97142.19;;;-6.32;100.00
61900;BME280;47853;55.890;37.664;2024-01-15T01:30:28;97148.84;;;-6.30;100.00
61900;BME280;47853;55.890;37.664;2024-01-15T01:32:53;97093.81;;;-6.30;100.00
61900;BME280;47853;55.890;37.664;2024-01-15T01:35:19;97104.47;;;-6.12;100.00
61900;BME280;47853;55.890;37.664;2024-01-15T01:37:44;97129.84;;;-6.17;100.00
61900;BME280;47853;55.890;37.664;2024-01-15T01:40:10;97143.28;;;-5.79;100.00
61900;BME280;47853;55.890;37.664;2024-01-15T01:42:35;97122.31;;;-5.54;100.00
61900;BME280;47853;55.890;37.664;2024-01-15T01:45:00;97122.81;;;-6.15;100.00
61900;BME280;47853;55.890;37.664;2024-01-15T01:47:26;97127.34;;;-5.96;100.00
61900;BME280;47853;55.890;37.664;2024-01-15T01:49:52;97118.16;;;-5.89;100.00
61900;BME280;47853;55.890;37.664;2024-01-15T01:52:18;97090.78;;;-5.91;100.00
61900;BME280;47853;55.890;37.664;2024-01-15T01:54:44;97101.19;;;-5.70;100.00
61900;BME280;47853;55.890;37.664;2024-01-15T01:57:10;97094.56;;;-5.51;100.00
61900;BME280;47853;55.890;37.664;2024-01-15T01:59:37;97116.66;;;-5.47;100.00
61900;BME280;47853;55.890;37.664;2024-01-15T02:02:03;97112.03;;;-5.44;100.00
61900;BME280;47853;55.890;37.664;2024-01-15T02:04:29;97108.25;;;-5.72;100.00
61900;BME280;47853;55.890;37.664;2024-01-15T02:06:56;97079.06;;;-4.88;100.00
61900;BME280;47853;55.890;37.664;2024-01-15T02:09:21;97100.31;;;-4.94;100.00
61900;BME280;47853;55.890;37.664;2024-01-15T02:11:47;97103.72;;;-5.47;100.00
61900;BME280;47853;55.890;37.664;2024-01-15T02:14:13;97099.78;;;-5.09;100.00
61900;BME280;47853;55.890;37.664;2024-01-15T02:16:41;97087.16;;;-5.02;100.00
61900;BME280;47853;55.890;37.664;2024-01-15T02:19:07;97107.59;;;-5.86;100.00
61900;BME280;47853;55.890;37.664;2024-01-15T02:21:32;97102.84;;;-5.04;100.00
61900;BME280;47853;55.890;37.664;2024-01-15T02:23:58;97075.22;;;-5.36;100.00
61900;BME280;47853;55.890;37.664;2024-01-15T02:26:24;97087.78;;;-5.10;100.00
61900;BME280;47853;55.890;37.664;2024-01-15T02:28:50;97102.72;;;-4.81;100.00
61900;BME280;47853;55.890;37.664;2024-01-15T02:31:16;97112.72;;;-5.09;100.00
61900;BME280;47853;55.890;37.664;2024-01-15T02:33:42;97102.16;;;-4.85;100.00
61900;BME280;47853;55.890;37.664;2024-01-15T02:36:08;97094.78;;;-5.55;100.00
61900;BME280;47853;55.890;37.664;2024-01-15T02:38:34;97091.38;;;-5.22;100.00
61900;BME280;47853;55.890;37.664;2024-01-15T02:41:00;97072.16;;;-4.25;100.00
61900;BME280;47853;55.890;37.664;2024-01-15T02:43:25;97106.50;;;-5.06;100.00
61900;BME280;47853;55.890;37.664;2024-01-15T02:45:50;97084.63;;;-5.35;100.00
61900;BME280;47853;55.890;37.664;2024-01-15T02:48:16;97100.28;;;-5.15;100.00
61900;BME280;47853;55.890;37.664;2024-01-15T02:50:41;97090.88;;;-5.82;100.00
61900;BME280;47853;55.890;37.664;2024-01-15T02:53:07;97081.25;;;-5.47;100.00
61900;BME280;47853;55.890;37.664;2024-01-15T02:55:32;97063.88;;;-4.81;100.00
61900;BME280;47853;55.890;37.664;2024-01-15T02:57:58;97081.69;;;-5.42;100.00
61900;BME280;47853;55.890;37.664;2024-01-15T03:00:23;97069.88;;;-5.23;100.00
61900;BME280;47853;55.890;37.664;2024-01-15T03:02:50;97079.44;;;-4.50;100.00
61900;BME280;47853;55.890;37.664;2024-01-15T03:05:16;97061.44;;;-5.04;100.00
61900;BME280;47853;55.890;37.664;2024-01-15T03:07:42;97088.06;;;-4.92;100.00
61900;BME280;47853;55.890;37.664;2024-01-15T03:10:08;97084.41;;;-4.37;100.00
61900;BME280;47853;55.890;37.664;2024-01-15T03:12:33;97079.47;;;-4.71;100.00
61900;BME280;47853;55.890;37.664;2024-01-15T03:14:59;97066.50;;;-4.71;100.00
61900;BME280;47853;55.890;37.664;2024-01-15T03:17:24;97060.78;;;-4.96;100.00
61900;BME280;47853;55.890;37.664;2024-01-15T03:19:50;97085.47;;;-4.40;100.00
61900;BME280;47853;55.890;37.664;2024-01-15T03:22:18;97072.47;;;-4.81;100.00
61900;BME280;47853;55.890;37.664;2024-01-15T03:24:44;97073.78;;;-4.65;100.00
61900;BME280;47853;55.890;37.664;2024-01-15T03:27:09;97055.97;;;-4.79;100.00
61900;BME280;47853;55.890;37.664;2024-01-15T03:29:35;97055.63;;;-4.65;100.00
61900;BME280;47853;55.890;37.664;2024-01-15T03:32:00;97067.28;;;-4.81;100.00
61900;BME280;47853;55.890;37.664;2024-01-15T03:34:26;97073.84;;;-4.76;100.00
61900;BME280;47853;55.890;37.664;2024-01-15T03:36:51;97069.94;;;-4.40;100.00
61900;BME280;47853;55.890;37.664;2024-01-15T03:39:17;97059.72;;;-4.31;100.00
61900;BME280;47853;55.890;37.664;2024-01-15T03:41:42;97071.38;;;-4.16;100.00
61900;BME280;47853;55.890;37.664;2024-01-15T03:44:08;97053.06;;;-4.24;100.00
61900;BME280;47853;55.890;37.664;2024-01-15T03:46:36;97067.66;;;-4.23;100.00
61900;BME280;47853;55.890;37.664;2024-01-15T03:49:02;97057.41;;;-4.34;100.00
61900;BME280;47853;55.890;37.664;2024-01-15T03:51:27;97059.69;;;-4.72;100.00
61900;BME280;47853;55.890;37.664;2024-01-15T03:53:53;97052.25;;;-4.56;100.00
61900;BME280;47853;55.890;37.664;2024-01-15T03:56:18;97050.34;;;-4.54;100.00
61900;BME280;47853;55.890;37.664;2024-01-15T03:58:44;97048.78;;;-4.45;100.00
61900;BME280;47853;55.890;37.664;2024-01-15T04:01:10;97040.09;;;-4.34;100.00
61900;BME280;47853;55.890;37.664;2024-01-15T04:03:36;97060.25;;;-4.38;100.00
61900;BME280;47853;55.890;37.664;2024-01-15T04:06:02;97044.31;;;-4.23;100.00
61900;BME280;47853;55.890;37.664;2024-01-15T04:08:28;97046.81;;;-4.22;100.00
61900;BME280;47853;55.890;37.664;2024-01-15T04:10:53;97053.44;;;-3.88;100.00
61900;BME280;47853;55.890;37.664;2024-01-15T04:13:19;97032.47;;;-4.26;100.00
61900;BME280;47853;55.890;37.664;2024-01-15T04:15:44;97031.41;;;-4.13;100.00
61900;BME280;47853;55.890;37.664;2024-01-15T04:18:10;97051.25;;;-3.83;100.00
61900;BME280;47853;55.890;37.664;2024-01-15T04:20:35;97031.66;;;-4.16;100.00
61900;BME280;47853;55.890;37.664;2024-01-15T04:23:00;97045.66;;;-4.39;100.00
61900;BME280;47853;55.890;37.664;2024-01-15T04:25:26;97050.44;;;-3.83;100.00
61900;BME280;47853;55.890;37.664;2024-01-15T04:27:51;97060.56;;;-4.31;100.00
61900;BME280;47853;55.890;37.664;2024-01-15T04:30:17;97040.06;;;-3.83;100.00
61900;BME280;47853;55.890;37.664;2024-01-15T04:32:42;97046.63;;;-3.79;100.00
61900;BME280;47853;55.890;37.664;2024-01-15T04:35:08;97037.75;;;-3.86;100.00
61900;BME280;47853;55.890;37.664;2024-01-15T04:37:33;97039.13;;;-3.53;100.00
61900;BME280;47853;55.890;37.664;2024-01-15T04:39:59;97024.81;;;-4.37;100.00
61900;BME280;47853;55.890;37.664;2024-01-15T04:42:24;97011.78;;;-3.76;100.00
61900;BME280;47853;55.890;37.664;2024-01-15T04:44:50;97032.91;;;-4.01;100.00
61900;BME280;47853;55.890;37.664;2024-01-15T04:47:15;97038.19;;;-3.42;100.00
61900;BME280;47853;55.890;37.664;2024-01-15T04:49:41;97014.25;;;-4.04;100.00
61900;BME280;47853;55.890;37.664;2024-01-15T04:52:06;97031.91;;;-3.49;100.00
61900;BME280;47853;55.890;37.664;2024-01-15T04:54:32;97036.63;;;-3.05;100.00
61900;BME280;47853;55.890;37.664;2024-01-15T04:56:57;97013.59;;;-3.77;100.00
61900;BME280;47853;55.890;37.664;2024-01-15T04:59:23;97042.78;;;-3.85;100.00
61900;BME280;47853;55.890;37.664;2024-01-15T05:01:48;97025.47;;;-3.74;100.00
61900;BME280;47853;55.890;37.664;2024-01-15T05:04:14;97035.91;;;-4.15;100.00
61900;BME280;47853;55.890;37.664;2024-01-15T05:06:40;97008.13;;;-3.54;100.00
61900;BME280;47853;55.890;37.664;2024-01-15T05:09:05;97010.66;;;-4.13;100.00
61900;BME280;47853;55.890;37.664;2024-01-15T05:11:30;97009.47;;;-3.99;100.00
61900;BME280;47853;55.890;37.664;2024-01-15T05:14:05;97028.28;;;-4.17;100.00
61900;BME280;47853;55.890;37.664;2024-01-15T05:16:30;97024.72;;;-4.06;100.00
61900;BME280;47853;55.890;37.664;2024-01-15T05:18:56;97023.41;;;-3.90;100.00
61900;BME280;47853;55.890;37.664;2024-01-15T05:21:21;97016.31;;;-2.62;100.00
61900;BME280;47853;55.890;37.664;2024-01-15T05:23:47;97014.63;;;-3.11;100.00
61900;BME280;47853;55.890;37.664;2024-01-15T05:26:12;96999.38;;;-3.73;100.00
61900;BME280;47853;55.890;37.664;2024-01-15T05:28:41;97013.03;;;-3.90;100.00
61900;BME280;47853;55.890;37.664;2024-01-15T05:31:06;97025.56;;;-3.07;100.00
61900;BME280;47853;55.890;37.664;2024-01-15T05:33:32;97018.50;;;-3.64;100.00
61900;BME280;47853;55.890;37.664;2024-01-15T05:35:57;97030.13;;;-3.68;100.00
61900;BME280;47853;55.890;37.664;2024-01-15T05:38:23;97019.47;;;-3.45;100.00
61900;BME280;47853;55.890;37.664;2024-01-15T05:40:48;97005.41;;;-3.72;100.00
61900;BME280;47853;55.890;37.664;2024-01-15T05:43:13;97023.00;;;-3.76;100.00
61900;BME280;47853;55.890;37.664;2024-01-15T05:45:42;97009.06;;;-3.55;100.00
61900;BME280;47853;55.890;37.664;2024-01-15T05:48:08;97019.06;;;-3.51;100.00
61900;BME280;47853;55.890;37.664;2024-01-15T05:50:33;97024.66;;;-3.26;100.00
61900;BME280;47853;55.890;37.664;2024-01-15T05:52:59;97033.13;;;-3.24;100.00
61900;BME280;47853;55.890;37.664;2024-01-15T05:55:24;97042.25;;;-3.19;100.00
61900;BME280;47853;55.890;37.664;2024-01-15T05:57:50;97011.53;;;-3.34;100.00
61900;BME280;47853;55.890;37.664;2024-01-15T06:00:18;97027.13;;;-3.54;100.00
61900;BME280;47853;55.890;37.664;2024-01-15T06:02:44;97010.03;;;-3.76;100.00
61900;BME280;47853;55.890;37.664;2024-01-15T06:05:09;97002.91;;;-3.54;100.00
61900;BME280;47853;55.890;37.664;2024-01-15T06:07:35;97020.28;;;-3.55;100.00
61900;BME280;47853;55.890;37.664;2024-01-15T06:10:00;97021.03;;;-2.95;100.00
61900;BME280;47853;55.890;37.664;2024-01-15T06:12:25;97018.38;;;-3.53;100.00
61900;BME280;47853;55.890;37.664;2024-01-15T06:14:51;97002.59;;;-3.02;100.00
61900;BME280;47853;55.890;37.664;2024-01-15T06:17:19;97036.47;;;-2.94;100.00
61900;BME280;47853;55.890;37.664;2024-01-15T06:19:45;97010.56;;;-3.33;100.00
61900;BME280;47853;55.890;37.664;2024-01-15T06:22:10;97021.31;;;-2.98;100.00
61900;BME280;47853;55.890;37.664;2024-01-15T06:24:36;97013.84;;;-3.60;100.00
61900;BME280;47853;55.890;37.664;2024-01-15T06:27:01;97013.31;;;-3.35;100.00
61900;BME280;47853;55.890;37.664;2024-01-15T06:29:28;97035.97;;;-3.17;100.00
61900;BME280;47853;55.890;37.664;2024-01-15T06:31:53;97026.41;;;-3.36;100.00
61900;BME280;47853;55.890;37.664;2024-01-15T06:34:19;97031.16;;;-3.02;100.00
61900;BME280;47853;55.890;37.664;2024-01-15T06:36:44;97022.19;;;-3.37;100.00
61900;BME280;47853;55.890;37.664;2024-01-15T06:39:10;97033.84;;;-2.84;100.00
61900;BME280;47853;55.890;37.664;2024-01-15T06:41:35;97007.31;;;-3.55;100.00
61900;BME280;47853;55.890;37.664;2024-01-15T06:44:01;97028.75;;;-3.72;100.00
61900;BME280;47853;55.890;37.664;2024-01-15T06:46:26;97034.59;;;-3.21;100.00
61900;BME280;47853;55.890;37.664;2024-01-15T06:48:52;97035.38;;;-2.81;100.00
61900;BME280;47853;55.890;37.664;2024-01-15T06:51:17;97030.59;;;-2.96;100.00
61900;BME280;47853;55.890;37.664;2024-01-15T06:53:43;97027.97;;;-2.76;100.00
61900;BME280;47853;55.890;37.664;2024-01-15T06:56:09;97025.28;;;-3.04;100.00
61900;BME280;47853;55.890;37.664;2024-01-15T06:58:34;97028.72;;;-2.56;100.00
61900;BME280;47853;55.890;37.664;2024-01-15T07:01:00;97044.41;;;-2.85;100.00
61900;BME280;47853;55.890;37.664;2024-01-15T07:03:25;97035.94;;;-2.50;100.00
61900;BME280;47853;55.890;37.664;2024-01-15T07:05:51;97038.66;;;-2.89;100.00
61900;BME280;47853;55.890;37.664;2024-01-15T07:08:16;97041.09;;;-2.87;100.00
61900;BME280;47853;55.890;37.664;2024-01-15T07:10:42;97039.63;;;-2.90;100.00
61900;BME280;47853;55.890;37.664;2024-01-15T07:13:09;97040.38;;;-2.60;100.00
61900;BME280;47853;55.890;37.664;2024-01-15T07:15:34;97043.75;;;-2.50;100.00
61900;BME280;47853;55.890;37.664;2024-01-15T07:18:00;97035.75;;;-2.76;100.00
61900;BME280;47853;55.890;37.664;2024-01-15T07:20:25;97022.13;;;-2.22;100.00
61900;BME280;47853;55.890;37.664;2024-01-15T07:22:51;97045.69;;;-2.62;100.00
61900;BME280;47853;55.890;37.664;2024-01-15T07:25:16;97031.25;;;-2.74;100.00
61900;BME280;47853;55.890;37.664;2024-01-15T07:27:42;97030.06;;;-2.52;100.00
61900;BME280;47853;55.890;37.664;2024-01-15T07:30:07;97014.75;;;-1.99;100.00
61900;BME280;47853;55.890;37.664;2024-01-15T07:32:33;97032.50;;;-2.50;100.00
61900;BME280;47853;55.890;37.664;2024-01-15T07:34:58;97012.56;;;-2.04;100.00
61900;BME280;47853;55.890;37.664;2024-01-15T07:37:24;97029.91;;;-2.50;100.00
61900;BME280;47853;55.890;37.664;2024-01-15T07:39:52;97015.84;;;-2.20;100.00
61900;BME280;47853;55.890;37.664;2024-01-15T07:42:18;97021.78;;;-2.65;100.00
61900;BME280;47853;55.890;37.664;2024-01-15T07:44:43;97017.84;;;-2.79;100.00
61900;BME280;47853;55.890;37.664;2024-01-15T07:47:08;97020.88;;;-2.18;100.00
61900;BME280;47853;55.890;37.664;2024-01-15T07:49:34;97018.03;;;-1.97;100.00
61900;BME280;47853;55.890;37.664;2024-01-15T07:51:59;97033.84;;;-2.84;100.00
61900;BME280;47853;55.890;37.664;2024-01-15T07:54:25;97007.66;;;-2.07;100.00
61900;BME280;47853;55.890;37.664;2024-01-15T07:56:59;97002.66;;;-1.90;100.00
61900;BME280;47853;55.890;37.664;2024-01-15T07:59:26;97025.28;;;-2.56;100.00
61900;BME280;47853;55.890;37.664;2024-01-15T08:01:52;97035.72;;;-2.28;100.00
61900;BME280;47853;55.890;37.664;2024-01-15T08:04:17;97024.25;;;-2.08;100.00
61900;BME280;47853;55.890;37.664;2024-01-15T08:06:43;97029.66;;;-1.73;100.00
61900;BME280;47853;55.890;37.664;2024-01-15T08:09:09;97010.38;;;-1.80;100.00
61900;BME280;47853;55.890;37.664;2024-01-15T08:11:35;97008.84;;;-1.73;100.00
61900;BME280;47853;55.890;37.664;2024-01-15T08:14:01;97006.97;;;-2.27;100.00
61900;BME280;47853;55.890;37.664;2024-01-15T08:16:27;97029.19;;;-1.68;100.00
61900;BME280;47853;55.890;37.664;2024-01-15T08:18:53;97021.06;;;-2.01;100.00
61900;BME280;47853;55.890;37.664;2024-01-15T08:21:21;97025.19;;;-1.44;100.00
61900;BME280;47853;55.890;37.664;2024-01-15T08:23:47;97018.84;;;-1.78;100.00
61900;BME280;47853;55.890;37.664;2024-01-15T08:26:12;97011.53;;;-1.02;100.00
61900;BME280;47853;55.890;37.664;2024-01-15T08:28:38;97021.38;;;-0.88;100.00
61900;BME280;47853;55.890;37.664;2024-01-15T08:31:03;97022.13;;;-1.58;100.00
61900;BME280;47853;55.890;37.664;2024-01-15T08:33:29;97010.97;;;-1.50;100.00
61900;BME280;47853;55.890;37.664;2024-01-15T08:35:54;97017.88;;;-0.96;100.00
61900;BME280;47853;55.890;37.664;2024-01-15T08:38:20;97017.91;;;-1.14;100.00
61900;BME280;47853;55.890;37.664;2024-01-15T08:40:46;97012.38;;;-1.56;100.00
61900;BME280;47853;55.890;37.664;2024-01-15T08:43:15;97027.09;;;-1.10;100.00
61900;BME280;47853;55.890;37.664;2024-01-15T08:45:40;97031.75;;;-0.96;100.00
61900;BME280;47853;55.890;37.664;2024-01-15T08:48:09;97020.84;;;-1.36;100.00
61900;BME280;47853;55.890;37.664;2024-01-15T08:50:34;97023.34;;;-2.16;100.00
61900;BME280;47853;55.890;37.664;2024-01-15T08:53:00;97025.09;;;-1.35;100.00
61900;BME280;47853;55.890;37.664;2024-01-15T08:55:25;97012.78;;;-1.33;100.00
61900;BME280;47853;55.890;37.664;2024-01-15T08:57:51;97018.19;;;-0.99;100.00
61900;BME280;47853;55.890;37.664;2024-01-15T09:00:17;97028.25;;;-0.78;100.00
61900;BME280;47853;55.890;37.664;2024-01-15T09:02:43;97024.72;;;-0.95;100.00
61900;BME280;47853;55.890;37.664;2024-01-15T09:05:09;96990.25;;;-0.89;100.00
61900;BME280;47853;55.890;37.664;2024-01-15T09:07:34;97052.78;;;-1.52;100.00
61900;BME280;47853;55.890;37.664;2024-01-15T09:09:59;96997.56;;;-1.19;100.00
61900;BME280;47853;55.890;37.664;2024-01-15T09:12:26;97018.91;;;-0.89;100.00
61900;BME280;47853;55.890;37.664;2024-01-15T09:14:51;97027.84;;;-0.65;100.00
61900;BME280;47853;55.890;37.664;2024-01-15T09:17:17;96986.53;;;-1.13;100.00
61900;BME280;47853;55.890;37.664;2024-01-15T09:19:43;97013.78;;;-1.07;100.00
61900;BME280;47853;55.890;37.664;2024-01-15T09:22:08;97015.81;;;-0.93;100.00
61900;BME280;47853;55.890;37.664;2024-01-15T09:24:34;97023.84;;;-0.17;100.00
61900;BME280;47853;55.890;37.664;2024-01-15T09:26:59;97015.66;;;-0.30;100.00
61900;BME280;47853;55.890;37.664;2024-01-15T09:29:27;96984.38;;;-1.18;100.00
61900;BME280;47853;55.890;37.664;2024-01-15T09:31:53;96990.31;;;-0.46;100.00
61900;BME280;47853;55.890;37.664;2024-01-15T09:34:18;97013.41;;;-0.60;100.00
61900;BME280;47853;55.890;37.664;2024-01-15T09:36:52;97009.28;;;-0.62;100.00
61900;BME280;47853;55.890;37.664;2024-01-15T09:39:34;96960.22;;;-0.67;100.00
61900;BME280;47853;55.890;37.664;2024-01-15T09:42:04;96931.50;;;-1.10;100.00
61900;BME280;47853;55.890;37.664;2024-01-15T09:45:01;96933.16;;;-1.35;100.00
61900;BME280;47853;55.890;37.664;2024-01-15T09:47:36;96945.81;;;-1.14;100.00
61900;BME280;47853;55.890;37.664;2024-01-15T09:50:08;96942.25;;;-1.57;100.00
61900;BME280;47853;55.890;37.664;2024-01-15T09:52:34;97030.69;;;-0.85;100.00
61900;BME280;47853;55.890;37.664;2024-01-15T09:55:04;96901.25;;;-1.37;100.00
61900;BME280;47853;55.890;37.664;2024-01-15T09:57:30;96953.69;;;-0.71;100.00
61900;BME280;47853;55.890;37.664;2024-01-15T10:00:08;97000.78;;;0.13;100.00
61900;BME280;47853;55.890;37.664;2024-01-15T10:02:35;97020.09;;;-0.49;100.00
61900;BME280;47853;55.890;37.664;2024-01-15T10:05:01;96981.44;;;-1.14;100.00
61900;BME280;47853;55.890;37.664;2024-01-15T10:07:35;96939.78;;;-1.41;100.00
61900;BME280;47853;55.890;37.664;2024-01-15T10:10:12;97029.53;;;-0.21;100.00
61900;BME280;47853;55.890;37.664;2024-01-15T10:12:39;96965.91;;;-0.37;100.00
61900;BME280;47853;55.890;37.664;2024-01-15T10:15:05;96949.47;;;-0.98;100.00
61900;BME280;47853;55.890;37.664;2024-01-15T10:17:38;96930.75;;;-1.02;100.00
61900;BME280;47853;55.890;37.664;2024-01-15T10:20:16;97006.91;;;-0.55;100.00
61900;BME280;47853;55.890;37.664;2024-01-15T10:22:50;97019.50;;;0.09;100.00
61900;BME280;47853;55.890;37.664;2024-01-15T10:25:18;97011.97;;;-0.11;100.00
61900;BME280;47853;55.890;37.664;2024-01-15T10:28:08;97001.56;;;0.06;100.00
61900;BME280;47853;55.890;37.664;2024-01-15T10:30:37;96974.00;;;0.03;100.00
61900;BME280;47853;55.890;37.664;2024-01-15T10:36:03;96992.00;;;-0.28;100.00
61900;BME280;47853;55.890;37.664;2024-01-15T10:41:38;96908.31;;;-0.95;100.00
61900;BME280;47853;55.890;37.664;2024-01-15T10:46:56;96947.00;;;-0.31;100.00
61900;BME280;47853;55.890;37.664;2024-01-15T10:49:32;96902.22;;;-0.69;100.00
61900;BME280;47853;55.890;37.664;2024-01-15T10:52:31;96909.06;;;-0.68;100.00
61900;BME280;47853;55.890;37.664;2024-01-15T10:55:07;96890.53;;;-0.99;100.00
61900;BME280;47853;55.890;37.664;2024-01-15T10:57:33;96905.44;;;-0.83;100.00
61900;BME280;47853;55.890;37.664;2024-01-15T11:06:52;96975.41;;;-0.19;100.00
61900;BME280;47853;55.890;37.664;2024-01-15T11:09:38;96905.38;;;-0.49;100.00
61900;BME280;47853;55.890;37.664;2024-01-15T11:15:17;97020.06;;;-0.22;100.00
61900;BME280;47853;55.890;37.664;2024-01-15T11:30:26;96904.44;;;-0.39;100.00
61900;BME280;47853;55.890;37.664;2024-01-15T11:39:54;96943.47;;;-0.21;100.00
61900;BME280;47853;55.890;37.664;2024-01-15T11:45:20;97006.66;;;1.15;100.00
61900;BME280;47853;55.890;37.664;2024-01-15T11:48:09;97002.56;;;0.21;100.00
61900;BME280;47853;55.890;37.664;2024-01-15T11:50:51;96929.31;;;0.23;100.00
61900;BME280;47853;55.890;37.664;2024-01-15T11:53:53;96990.56;;;0.70;100.00
61900;BME280;47853;55.890;37.664;2024-01-15T11:56:24;97000.00;;;0.96;100.00
61900;BME280;47853;55.890;37.664;2024-01-15T11:58:52;96939.50;;;-0.25;100.00
61900;BME280;47853;55.890;37.664;2024-01-15T12:01:24;96926.38;;;0.34;100.00
61900;BME280;47853;55.890;37.664;2024-01-15T12:03:53;96993.44;;;1.08;100.00
61900;BME280;47853;55.890;37.664;2024-01-15T12:09:18;96913.50;;;0.24;100.00
61900;BME280;47853;55.890;37.664;2024-01-15T12:12:09;96922.63;;;0.45;100.00
61900;BME280;47853;55.890;37.664;2024-01-15T12:14:40;96918.03;;;-0.11;100.00
61900;BME280;47853;55.890;37.664;2024-01-15T12:17:17;96930.78;;;0.75;100.00
61900;BME280;47853;55.890;37.664;2024-01-15T12:19:45;96910.69;;;-0.16;100.00
61900;BME280;47853;55.890;37.664;2024-01-15T12:22:31;96964.97;;;-0.62;100.00
61900;BME280;47853;55.890;37.664;2024-01-15T12:27:54;96897.16;;;-0.11;100.00
61900;BME280;47853;55.890;37.664;2024-01-15T12:30:49;96991.66;;;0.84;100.00
61900;BME280;47853;55.890;37.664;2024-01-15T12:33:17;97008.06;;;1.42;100.00
61900;BME280;47853;55.890;37.664;2024-01-15T12:36:19;96896.19;;;-0.02;100.00
61900;BME280;47853;55.890;37.664;2024-01-15T12:38:41;96973.25;;;0.69;100.00
61900;BME280;47853;55.890;37.664;2024-01-15T12:41:41;96925.66;;;0.98;100.00
61900;BME280;47853;55.890;37.664;2024-01-15T12:44:29;96899.31;;;0.02;100.00
61900;BME280;47853;55.890;37.664;2024-01-15T12:47:30;96934.03;;;0.19;100.00
61900;BME280;47853;55.890;37.664;2024-01-15T12:50:27;96994.78;;;0.38;100.00
61900;BME280;47853;55.890;37.664;2024-01-15T12:56:11;96984.66;;;0.35;100.00
61900;BME280;47853;55.890;37.664;2024-01-15T13:04:34;96942.88;;;0.26;100.00
61900;BME280;47853;55.890;37.664;2024-01-15T13:07:07;96968.16;;;0.34;100.00
61900;BME280;47853;55.890;37.664;2024-01-15T13:09:35;96900.09;;;0.11;100.00
61900;BME280;47853;55.890;37.664;2024-01-15T13:12:08;96952.97;;;0.88;100.00
61900;BME280;47853;55.890;37.664;2024-01-15T13:14:34;96915.44;;;0.72;100.00
61900;BME280;47853;55.890;37.664;2024-01-15T13:17:00;96948.47;;;1.21;100.00
61900;BME280;47853;55.890;37.664;2024-01-15T13:19:28;97018.94;;;0.65;100.00
61900;BME280;47853;55.890;37.664;2024-01-15T13:21:54;97004.25;;;0.64;100.00
61900;BME280;47853;55.890;37.664;2024-01-15T13:24:21;97010.41;;;1.21;100.00
61900;BME280;47853;55.890;37.664;2024-01-15T13:26:46;96990.38;;;0.55;100.00
61900;BME280;47853;55.890;37.664;2024-01-15T13:29:12;97016.91;;;1.41;100.00
61900;BME280;47853;55.890;37.664;2024-01-15T13:31:38;96999.34;;;0.85;100.00
61900;BME280;47853;55.890;37.664;2024-01-15T13:34:03;97005.22;;;1.12;100.00
61900;BME280;47853;55.890;37.664;2024-01-15T13:36:29;97040.66;;;0.74;100.00
61900;BME280;47853;55.890;37.664;2024-01-15T13:38:54;97013.69;;;1.14;100.00